createdAt,value
2018-12-27T15:56:54.082Z,4.33
2018-12-27T16:01:57.513Z,4.82
2018-12-27T16:07:01.895Z,4.39
2018-12-27T16:12:05.673Z,3.96
2018-12-27T16:17:09.122Z,3.75
2018-12-27T16:22:12.809Z,3.55
2018-12-27T16:27:16.243Z,3.41
2018-12-27T16:32:19.687Z,3.27
2018-12-27T16:37:23.121Z,3.20
2018-12-27T16:42:26.564Z,3.13
2018-12-27T16:47:29.994Z,3.09
2018-12-27T16:52:33.503Z,3.11
2018-12-27T16:57:36.959Z,3.01
2018-12-27T17:02:40.408Z,2.98
2018-12-27T17:07:43.838Z,3.09
2018-12-27T17:12:47.287Z,3.12
2018-12-27T17:17:50.726Z,3.18
2018-12-27T17:22:54.183Z,3.21
2018-12-27T17:27:57.606Z,3.23
2018-12-27T17:33:01.043Z,3.19
2018-12-27T17:38:04.513Z,3.15
2018-12-27T17:43:07.956Z,3.13
2018-12-27T17:48:11.413Z,3.11
2018-12-27T17:53:14.853Z,3.12
2018-12-27T17:58:18.296Z,3.13
2018-12-27T18:03:21.817Z,3.04
2018-12-27T18:08:25.259Z,3.07
2018-12-27T18:13:28.690Z,2.93
2018-12-27T18:18:32.132Z,2.81
2018-12-27T18:23:35.571Z,2.63
2018-12-27T18:28:39.017Z,2.46
2018-12-27T18:33:42.458Z,2.32
2018-12-27T18:38:45.924Z,2.19
2018-12-27T18:43:49.353Z,2.11
2018-12-27T18:48:52.798Z,2.16
2018-12-27T18:53:56.284Z,2.09
2018-12-27T18:58:59.729Z,2.24
2018-12-27T19:04:03.158Z,2.21
2018-12-27T19:09:07.471Z,2.25
2018-12-27T19:14:10.915Z,2.06
2018-12-27T19:19:14.356Z,2.14
2018-12-27T19:24:17.803Z,2.05
2018-12-27T19:29:21.234Z,2.01
2018-12-27T19:34:24.667Z,2.03
2018-12-27T19:39:28.118Z,2.10
2018-12-27T19:44:31.553Z,2.09
2018-12-27T19:49:34.980Z,2.05
2018-12-27T19:54:38.459Z,2.15
2018-12-27T19:59:41.898Z,2.07
2018-12-27T20:04:45.328Z,2.19
2018-12-27T20:09:48.782Z,2.23
2018-12-27T20:14:52.230Z,2.16
2018-12-27T20:19:55.665Z,2.14
2018-12-27T20:24:59.176Z,2.12
2018-12-27T20:30:02.618Z,2.14
2018-12-27T20:35:06.059Z,2.20
2018-12-27T20:40:09.494Z,2.20
2018-12-27T20:45:12.941Z,2.27
2018-12-27T20:50:16.476Z,2.29
2018-12-27T20:55:19.919Z,2.22
2018-12-27T21:00:23.481Z,2.21
2018-12-27T21:05:26.971Z,2.21
2018-12-27T21:10:30.469Z,2.18
2018-12-27T21:15:33.889Z,2.25
2018-12-27T21:20:37.707Z,2.29
2018-12-27T21:25:41.652Z,2.23
2018-12-27T21:30:45.109Z,2.18
2018-12-27T21:35:48.550Z,2.08
2018-12-27T21:40:52.099Z,2.13
2018-12-27T21:45:55.538Z,2.02
2018-12-27T21:50:58.985Z,2.09
2018-12-27T21:56:02.432Z,1.94
2018-12-27T22:01:05.880Z,2.01
2018-12-27T22:06:09.320Z,2.11
2018-12-27T22:11:12.802Z,2.10
2018-12-27T22:16:16.652Z,2.12
2018-12-27T22:21:20.109Z,2.03
2018-12-27T22:26:23.598Z,1.93
2018-12-27T22:31:27.084Z,1.93
2018-12-27T22:36:30.532Z,1.64
2018-12-27T22:41:37.463Z,1.60
2018-12-27T22:46:40.904Z,1.47
2018-12-27T22:51:44.343Z,1.38
2018-12-27T22:56:47.775Z,1.67
2018-12-27T23:01:51.288Z,1.79
2018-12-27T23:06:54.712Z,1.72
2018-12-27T23:11:58.140Z,1.84
2018-12-27T23:17:01.567Z,1.84
2018-12-27T23:22:05.014Z,1.82
2018-12-27T23:27:08.446Z,1.66
2018-12-27T23:32:11.898Z,1.76
2018-12-27T23:37:15.350Z,1.58
2018-12-27T23:42:18.783Z,1.49
2018-12-27T23:47:22.227Z,1.10
2018-12-27T23:52:25.664Z,1.02
2018-12-27T23:57:29.091Z,0.90
